Atlantic - Labrador: Past 24 Hour Conditions

 

Nain Airport

05:00 PM AST 15 February 2019
Disclaimer

This table is a summary of hourly weather conditions for the past 24 hours.
Please note that these observations might not always be representative of weather conditions over their associated marine area.

Date / Time
(AST)
Wind(knots) Conditions Visibility(km) Pressure(kPa) Air tempC) Relative humidity(%) Dew pointC) Wind Chill
15 February 2019
17:00 N 1 Partly Cloudy 24 102.1 -20 66 -25 -22
16:00 N 1 Mostly Cloudy 24 102.1 -18 56 -25 -20
15:00 N 1 Partly Cloudy 24 102.1 -19 66 -24 -21
14:00 WNW 4 Partly Cloudy 24 102.1 -19 59 -25 -25
13:00 NNW 2 Partly Cloudy 24 102.1 -20 65 -25 -23
12:00 NW 2 Partly Cloudy 24 102.1 -20 60 -26 -22
11:00 NW 2 Partly Cloudy 24 102.1 -23 70 -27 -27
10:00 E 2 Partly Cloudy 24 102.2 -23 65 -28 -26
9:00 NW 2 Mainly Sunny 24 102.1 -25 74 -28 -29
8:00 calm Mainly Sunny 24 102.1 -25 76 -28 *
7:00 SSE 3 Clear 24 102.1 -24 77 -27 -30
6:00 WNW 2 Clear 24 102.0 -25 76 -28 -29
5:00 calm Clear 24 102.0 -24 79 -26 *
4:00 N/A N/A N/A 102.0 -24 76 -27 *
3:00 N/A N/A N/A 102.0 -23 73 -26 *
2:00 N/A N/A N/A 101.9 -24 78 -26 *
1:00 N/A N/A N/A 101.9 -22 79 -25 *
0:00 N/A N/A N/A 101.9 -21 72 -25 *
14 February 2019
23:00 N/A N/A N/A 101.8 -21 72 -24 *
22:00 N/A N/A N/A 101.8 -18 66 -23 *
21:00 N/A N/A N/A 101.8 -16 66 -21 *
20:00 WNW 8 Cloudy 24 101.7 -16 61 -22 -24
19:00 W 7 Cloudy 24 101.7 -15 59 -21 -22
18:00 W 11 Cloudy 24 101.6 -15 61 -21 -25
17:00 N 1 Mostly Cloudy 24 101.6 -18 68 -22 -19

Zoom-in to make a selection

Map of Atlantic - Labrador marine weather areas Kangiqsualujjuaq Airport Cape Kakkiviak Cape Kiglapait Cartwright Airport CFB Goose Bay Hopedale Mary's Harbour Nain Airport Makkovik Airport Saglek Tukialik Bay
Legend:
buoy Buoy
land station Land Station

Atlantic - Labrador Area

Another Region

What we are doing

Date modified: